createdAt,value
2018-12-27T00:02:40.247Z,70.70
2018-12-27T00:07:45.771Z,73.20
2018-12-27T00:12:52.183Z,73.57
2018-12-27T00:17:57.395Z,76.30
2018-12-27T00:23:02.850Z,76.57
2018-12-27T00:28:07.997Z,81.07
2018-12-27T00:33:13.126Z,75.33
2018-12-27T00:38:18.391Z,67.10
2018-12-27T00:43:24.138Z,67.40
2018-12-27T00:48:29.415Z,70.10
2018-12-27T00:53:34.893Z,72.83
2018-12-27T00:58:40.433Z,70.10
2018-12-27T01:03:46.977Z,70.07
2018-12-27T01:08:55.124Z,66.73
2018-12-27T01:14:00.392Z,76.60
2018-12-27T01:19:05.554Z,86.60
2018-12-27T01:24:10.674Z,91.47
2018-12-27T01:29:15.819Z,85.43
2018-12-27T01:34:20.956Z,94.90
2018-12-27T01:39:26.107Z,86.23
2018-12-27T01:44:31.271Z,94.17
2018-12-27T01:49:36.394Z,97.30
2018-12-27T01:54:41.547Z,96.90
2018-12-27T01:59:46.702Z,98.97
2018-12-27T02:04:51.834Z,104.10
2018-12-27T02:09:56.994Z,92.93
2018-12-27T02:15:02.116Z,94.57
2018-12-27T02:20:07.232Z,95.87
2018-12-27T02:25:12.341Z,95.47
2018-12-27T02:30:17.547Z,85.03
2018-12-27T02:35:22.671Z,95.77
2018-12-27T02:40:27.794Z,99.63
2018-12-27T02:45:32.919Z,102.20
2018-12-27T02:50:38.049Z,88.53
2018-12-27T02:55:43.165Z,99.00
2018-12-27T03:00:48.335Z,88.47
2018-12-27T03:05:53.466Z,102.40
2018-12-27T03:10:58.590Z,93.10
2018-12-27T03:16:03.699Z,97.40
2018-12-27T03:21:08.822Z,102.67
2018-12-27T03:26:13.976Z,108.13
2018-12-27T03:31:19.080Z,100.70
2018-12-27T03:36:24.216Z,94.40
2018-12-27T03:41:29.335Z,99.27
2018-12-27T03:46:34.461Z,107.90
2018-12-27T03:51:39.594Z,100.10
2018-12-27T03:56:44.730Z,104.70
2018-12-27T04:01:49.895Z,110.10
2018-12-27T04:06:55.155Z,120.70
2018-12-27T04:12:00.274Z,118.87
2018-12-27T04:17:05.962Z,126.00
2018-12-27T04:22:10.931Z,127.93
2018-12-27T04:27:15.909Z,128.27
2018-12-27T04:32:21.291Z,144.37
2018-12-27T04:37:26.292Z,180.53
2018-12-27T04:42:32.521Z,152.23
2018-12-27T04:47:37.541Z,132.20
2018-12-27T04:52:42.511Z,145.20
2018-12-27T04:57:47.541Z,133.37
2018-12-27T05:02:52.526Z,152.87
2018-12-27T05:07:57.760Z,123.63
2018-12-27T05:13:02.837Z,202.13
2018-12-27T05:18:07.835Z,138.40
2018-12-27T05:23:12.794Z,175.73
2018-12-27T05:28:17.757Z,155.23
2018-12-27T05:33:22.733Z,162.30
2018-12-27T05:38:27.711Z,194.67
2018-12-27T05:43:32.743Z,135.93
2018-12-27T05:48:37.852Z,145.93
2018-12-27T05:53:42.827Z,156.60
2018-12-27T05:58:48.045Z,150.60
2018-12-27T06:03:53.010Z,140.47
2018-12-27T06:08:58.072Z,143.50
2018-12-27T06:14:03.048Z,154.33
2018-12-27T06:19:08.188Z,149.57
2018-12-27T06:24:13.186Z,143.83
2018-12-27T06:29:18.173Z,221.50
2018-12-27T06:34:23.150Z,148.07
2018-12-27T06:39:28.132Z,185.20
2018-12-27T06:44:33.109Z,134.23
2018-12-27T06:49:38.108Z,129.53
2018-12-27T06:54:43.072Z,128.33
2018-12-27T06:59:48.090Z,152.93
2018-12-27T07:04:53.073Z,129.17
2018-12-27T07:09:58.042Z,141.20
2018-12-27T07:15:03.007Z,121.93
2018-12-27T07:20:07.996Z,143.43
2018-12-27T07:25:12.975Z,120.70
2018-12-27T07:30:17.947Z,118.90
2018-12-27T07:35:22.925Z,121.27
2018-12-27T07:40:27.906Z,120.63
2018-12-27T07:45:32.885Z,119.67
2018-12-27T07:50:37.846Z,130.87
2018-12-27T07:55:42.829Z,129.10
2018-12-27T08:00:47.860Z,173.27
2018-12-27T08:05:52.846Z,126.67
2018-12-27T08:10:57.810Z,125.77
2018-12-27T08:16:02.793Z,126.77
2018-12-27T08:21:07.847Z,128.77
2018-12-27T08:26:12.839Z,154.20
2018-12-27T08:31:17.820Z,133.27
2018-12-27T08:36:22.806Z,149.43
2018-12-27T08:41:27.785Z,148.93
2018-12-27T08:46:32.765Z,129.57
2018-12-27T08:51:37.745Z,118.27
2018-12-27T08:56:42.722Z,120.60
2018-12-27T09:04:39.331Z,116.80
2018-12-27T09:09:46.242Z,124.93
2018-12-27T09:14:50.995Z,129.77
2018-12-27T09:19:56.015Z,113.30
2018-12-27T09:25:01.012Z,125.93
2018-12-27T09:30:06.656Z,110.90
2018-12-27T09:35:11.643Z,109.17
2018-12-27T09:40:16.623Z,108.87
2018-12-27T09:45:21.660Z,97.07
2018-12-27T09:50:26.631Z,82.33
2018-12-27T09:55:31.604Z,80.93
2018-12-27T10:00:36.564Z,73.93
2018-12-27T10:05:41.531Z,68.50
2018-12-27T10:10:46.508Z,73.60
2018-12-27T10:15:51.533Z,70.63
2018-12-27T10:20:56.522Z,69.77
2018-12-27T10:26:01.516Z,80.53
2018-12-27T10:31:06.501Z,67.97
2018-12-27T10:36:11.603Z,63.07
2018-12-27T10:41:16.561Z,59.63
2018-12-27T10:46:21.623Z,69.33
2018-12-27T10:51:26.629Z,68.20
2018-12-27T10:56:31.591Z,67.70
2018-12-27T11:01:36.579Z,70.03
2018-12-27T11:06:41.556Z,77.70
2018-12-27T11:11:46.551Z,76.70
2018-12-27T11:16:51.519Z,70.97
2018-12-27T11:21:56.508Z,72.60
2018-12-27T11:27:01.529Z,71.20
2018-12-27T11:32:06.775Z,74.90
2018-12-27T11:37:12.778Z,70.97
2018-12-27T11:42:18.014Z,72.43
2018-12-27T11:47:22.995Z,79.00
2018-12-27T11:52:27.964Z,78.27
2018-12-27T11:57:32.963Z,79.70
2018-12-27T12:02:37.940Z,80.13
2018-12-27T12:07:42.916Z,72.73
2018-12-27T12:12:47.878Z,70.10
2018-12-27T12:17:52.914Z,66.93
2018-12-27T12:22:57.880Z,69.60
2018-12-27T12:28:02.850Z,72.17
2018-12-27T12:33:07.827Z,70.97
2018-12-27T12:38:12.951Z,77.10
2018-12-27T12:43:17.919Z,76.47
2018-12-27T12:48:23.057Z,81.60
2018-12-27T12:53:28.010Z,80.77
2018-12-27T12:58:32.981Z,74.33
2018-12-27T13:03:38.020Z,81.20
2018-12-27T13:08:42.988Z,77.20
2018-12-27T13:13:47.969Z,84.50
2018-12-27T13:18:53.146Z,93.30
2018-12-27T13:23:58.116Z,79.53
2018-12-27T13:29:03.195Z,75.20
2018-12-27T13:34:08.155Z,72.27
2018-12-27T13:39:13.295Z,72.93
2018-12-27T13:44:18.261Z,74.70
2018-12-27T13:49:23.248Z,75.33
2018-12-27T13:54:28.228Z,73.57
2018-12-27T13:59:33.207Z,78.57
2018-12-27T14:04:38.209Z,73.27
2018-12-27T14:09:43.193Z,78.20
2018-12-27T14:14:48.227Z,79.77
2018-12-27T14:19:53.223Z,82.80
2018-12-27T14:24:58.351Z,72.90
2018-12-27T14:30:03.342Z,70.83
2018-12-27T14:35:08.356Z,72.60
2018-12-27T14:40:13.331Z,73.60
2018-12-27T14:45:18.323Z,68.47
2018-12-27T14:50:23.296Z,75.17
2018-12-27T14:55:28.767Z,70.13
2018-12-27T15:00:33.927Z,67.70
2018-12-27T15:05:40.418Z,76.17
2018-12-27T15:10:45.404Z,80.67
2018-12-27T15:15:50.390Z,69.70
2018-12-27T15:20:55.360Z,69.00
2018-12-27T15:26:00.364Z,86.43
2018-12-27T15:31:05.368Z,69.73
2018-12-27T15:36:10.324Z,71.00
2018-12-27T15:41:15.306Z,68.30
2018-12-27T15:46:20.298Z,65.23
2018-12-27T15:51:25.402Z,72.30
2018-12-27T15:56:30.379Z,64.87
2018-12-27T16:01:35.371Z,65.43
2018-12-27T16:06:40.432Z,67.40
2018-12-27T16:11:45.410Z,67.53
2018-12-27T16:16:50.376Z,66.37
2018-12-27T16:21:55.323Z,73.50
2018-12-27T16:27:00.300Z,71.60
2018-12-27T16:32:05.384Z,77.10
2018-12-27T16:37:10.366Z,79.77
2018-12-27T16:42:21.633Z,85.90
2018-12-27T16:47:21.948Z,82.47
2018-12-27T16:52:26.927Z,79.00
2018-12-27T16:57:31.909Z,76.77
2018-12-27T17:02:36.913Z,84.13
2018-12-27T17:07:41.898Z,80.77
2018-12-27T17:12:51.682Z,82.13
2018-12-27T17:17:56.647Z,80.37
2018-12-27T17:23:01.636Z,84.07
2018-12-27T17:28:06.676Z,83.00
2018-12-27T17:33:11.646Z,95.73
2018-12-27T17:38:16.623Z,84.70
2018-12-27T17:43:21.603Z,92.67
2018-12-27T17:48:26.588Z,87.60
2018-12-27T17:53:31.563Z,102.47
2018-12-27T17:58:36.661Z,116.10
2018-12-27T18:03:41.660Z,102.47
2018-12-27T18:08:46.892Z,97.13
2018-12-27T18:13:51.855Z,98.07
2018-12-27T18:18:56.991Z,83.33
2018-12-27T18:24:01.955Z,79.30
2018-12-27T18:29:07.112Z,69.57
2018-12-27T18:34:12.079Z,69.43
2018-12-27T18:39:17.039Z,68.50
2018-12-27T18:44:22.028Z,53.03
2018-12-27T18:49:27.076Z,49.40
2018-12-27T18:54:33.073Z,52.73
2018-12-27T18:59:39.836Z,46.60
2018-12-27T19:04:45.443Z,43.17
2018-12-27T19:09:51.763Z,43.60
2018-12-27T19:15:01.535Z,42.40
2018-12-27T19:20:07.879Z,40.70
2018-12-27T19:25:14.325Z,42.10
2018-12-27T19:30:19.307Z,42.13
2018-12-27T19:35:24.276Z,42.43
2018-12-27T19:40:29.226Z,41.77
2018-12-27T19:45:34.220Z,42.87
2018-12-27T19:50:39.353Z,41.20
2018-12-27T19:55:44.310Z,41.00
2018-12-27T20:00:49.277Z,41.40
2018-12-27T20:05:56.597Z,40.43
2018-12-27T20:11:01.580Z,40.63
2018-12-27T20:16:06.548Z,39.03
2018-12-27T20:21:11.512Z,40.37
2018-12-27T20:26:16.494Z,42.30
2018-12-27T20:31:21.455Z,40.80
2018-12-27T20:36:26.451Z,45.00
2018-12-27T20:41:31.421Z,44.87
2018-12-27T20:46:36.430Z,46.27
2018-12-27T20:51:41.409Z,46.37
2018-12-27T20:56:46.545Z,52.03
2018-12-27T21:01:51.567Z,58.10
2018-12-27T21:06:56.527Z,55.30
2018-12-27T21:12:01.511Z,59.53
2018-12-27T21:17:06.601Z,56.50
2018-12-27T21:22:11.554Z,60.67
2018-12-27T21:27:16.515Z,62.47
2018-12-27T21:32:21.635Z,65.37
2018-12-27T21:37:26.615Z,67.03
2018-12-27T21:42:31.634Z,73.30
2018-12-27T21:47:36.610Z,74.20
2018-12-27T21:52:41.562Z,71.13
2018-12-27T21:57:46.523Z,69.40
2018-12-27T22:02:51.494Z,71.80
2018-12-27T22:07:56.690Z,69.57
2018-12-27T22:13:01.666Z,54.17
2018-12-27T22:18:06.790Z,47.10
2018-12-27T22:23:12.110Z,45.43
2018-12-27T22:28:17.656Z,46.57
2018-12-27T22:33:23.238Z,45.33
2018-12-27T22:38:28.251Z,40.53
2018-12-27T22:43:33.219Z,42.03
2018-12-27T22:48:40.635Z,41.67
2018-12-27T22:53:45.640Z,41.93
2018-12-27T22:58:50.966Z,43.77
2018-12-27T23:03:55.937Z,42.50
2018-12-27T23:09:01.015Z,43.17
2018-12-27T23:14:06.100Z,40.17
2018-12-27T23:19:11.198Z,40.63
2018-12-27T23:24:16.203Z,39.80
2018-12-27T23:29:21.193Z,39.40
2018-12-27T23:34:26.165Z,39.17
2018-12-27T23:39:32.331Z,37.87
2018-12-27T23:44:37.274Z,39.57
2018-12-27T23:49:42.264Z,39.10
2018-12-27T23:54:47.218Z,39.60
2018-12-27T23:59:52.174Z,38.13
